»·PEaware :: N5954W KPSP-KPSP

N5954W :: KPSP-KPSP

FLIGHT INFORMATION

Flight Status: Arrived
Operator: Privately registered:
United States
More flights under this callsign
Pilot: Joshua M. (19482)
Aircraft: BEECH AIRCRAFT BARON
(BE58)
More flights by this aircraft type
Origin: KPSP Palm Springs Intl
United States
Destination: KPSP Palm Springs Intl
United States
More flights between these airports :: More routes between these airports
Route: +
File this flight plan on PilotEdge
Remarks:
Altitude:
(Current/Filed)
0ft
Speed:
(Current/Filed)
0kts
Departed: 26-Jul-18 05:42 PM
Arrived: 26-Jul-18 06:20 PM
Distance/Time
Traveled:
1nm/0:38
Distance/Time
To Go:
Arrived

Flight Plot

Page will automatically refresh every two minutes.


Map Options




Map Legend


Flown Route
Filed Route
Departure Airport
Arrival Airport
Navaid (VOR, NDB)
Fix

Horizontal Profiles

Position Reports

Time Latitude Longitude Heading Altitude Ground
Speed
26-Jul-18 17:38 33.824972 -116.505518 141 478ft 14kts
26-Jul-18 17:39 33.821494 -116.502418 142 478ft 16kts
26-Jul-18 17:40 33.818628 -116.499766 122 478ft 15kts
26-Jul-18 17:41 33.818540 -116.498863 87 478ft 0kts
26-Jul-18 17:42 33.818540 -116.498863 87 478ft 0kts
26-Jul-18 17:43 33.820909 -116.499782 321 478ft 67kts
26-Jul-18 17:44 33.844731 -116.518150 357 1204ft 127kts
26-Jul-18 17:45 33.860562 -116.492529 109 1735ft 136kts
26-Jul-18 17:46 33.829946 -116.459240 140 1559ft 120kts
26-Jul-18 17:47 33.803565 -116.462817 230 1525ft 111kts
26-Jul-18 17:48 33.807859 -116.487692 318 944ft 107kts
26-Jul-18 17:49 33.825382 -116.503800 324 478ft 77kts
26-Jul-18 17:50 33.847487 -116.526584 343 777ft 135kts
26-Jul-18 17:51 33.874533 -116.501757 62 1276ft 131kts
26-Jul-18 17:52 33.857106 -116.468867 139 1837ft 134kts
26-Jul-18 17:53 33.826802 -116.447982 180 1832ft 112kts
26-Jul-18 17:54 33.808259 -116.469887 243 1225ft 100kts
26-Jul-18 17:55 33.813863 -116.493314 313 764ft 102kts
26-Jul-18 17:56 33.827129 -116.505392 323 478ft 77kts
26-Jul-18 17:57 33.860433 -116.524206 25 1015ft 150kts
26-Jul-18 17:58 33.865794 -116.488427 144 1689ft 147kts
26-Jul-18 17:59 33.853628 -116.479616 149 1806ft 131kts
26-Jul-18 18:00 33.809398 -116.459866 228 1483ft 104kts
26-Jul-18 18:01 33.805759 -116.481781 291 1191ft 105kts
26-Jul-18 18:02 33.813013 -116.492948 324 785ft 103kts
26-Jul-18 18:03 33.857087 -116.524610 5 921ft 153kts
26-Jul-18 18:04 33.894458 -116.517300 9 1399ft 134kts
26-Jul-18 18:05 33.897253 -116.516693 9 1421ft 133kts
26-Jul-18 18:06 33.897253 -116.516693 9 1421ft 133kts
26-Jul-18 18:07 33.897253 -116.516693 9 1421ft 133kts
26-Jul-18 18:08 33.897253 -116.516693 9 1421ft 133kts
26-Jul-18 18:09 33.897253 -116.516693 9 1421ft 133kts
26-Jul-18 18:10 33.897253 -116.516693 9 1421ft 133kts
26-Jul-18 18:11 33.897253 -116.516693 9 1421ft 133kts
26-Jul-18 18:12 33.897253 -116.516693 9 1421ft 133kts
26-Jul-18 18:13 33.897253 -116.516693 9 1421ft 133kts
26-Jul-18 18:14 33.897253 -116.516693 9 1421ft 133kts
26-Jul-18 18:15 33.897253 -116.516693 9 1421ft 133kts
26-Jul-18 18:16 33.897253 -116.516693 9 1421ft 133kts
26-Jul-18 18:17 33.897253 -116.516693 9 1421ft 133kts
26-Jul-18 18:18 33.897253 -116.516693 9 1421ft 133kts
26-Jul-18 18:21 33.824000 -116.498924 55 478ft 0kts
26-Jul-18 18:22 33.824000 -116.498924 55 478ft 0kts
26-Jul-18 18:23 33.824517 -116.498477 332 478ft 9kts
26-Jul-18 18:24 33.824951 -116.498854 318 478ft 0kts
26-Jul-18 18:26 33.822443 -116.496199 0 478ft 0kts
26-Jul-18 18:27 33.822515 -116.496312 324 478ft 0kts
26-Jul-18 18:28 33.821420 -116.496173 153 478ft 0kts
26-Jul-18 18:29 33.821420 -116.496173 153 478ft 0kts
26-Jul-18 18:30 33.821420 -116.496173 153 478ft 0kts
26-Jul-18 18:31 33.821420 -116.496173 153 478ft 0kts
26-Jul-18 18:32 33.821420 -116.496173 153 478ft 0kts
26-Jul-18 18:33 33.821420 -116.496173 153 478ft 0kts
26-Jul-18 18:34 33.821420 -116.496173 153 478ft 0kts
26-Jul-18 18:35 33.821420 -116.496173 153 478ft 0kts

Navigation Log

Ident Type
1. KPSP Airport
2. KPSP Airport